sensor_id;sensor_type;location;lat;lon;timestamp;temperature;humidity
52127;DHT22;38120;53.176;6.614;2023-05-02T00:00:35;10.00;99.90
52127;DHT22;38120;53.176;6.614;2023-05-02T00:03:02;10.00;99.90
52127;DHT22;38120;53.176;6.614;2023-05-02T00:05:28;9.90;99.90
52127;DHT22;38120;53.176;6.614;2023-05-02T00:07:55;9.90;99.90
52127;DHT22;38120;53.176;6.614;2023-05-02T00:10:21;9.80;99.90
52127;DHT22;38120;53.176;6.614;2023-05-02T00:12:46;9.70;99.90
52127;DHT22;38120;53.176;6.614;2023-05-02T00:15:12;9.70;99.90
52127;DHT22;38120;53.176;6.614;2023-05-02T00:17:41;9.80;99.90
52127;DHT22;38120;53.176;6.614;2023-05-02T00:20:10;9.60;99.90
52127;DHT22;38120;53.176;6.614;2023-05-02T00:22:37;9.70;99.90
52127;DHT22;38120;53.176;6.614;2023-05-02T00:25:03;9.70;99.90
52127;DHT22;38120;53.176;6.614;2023-05-02T00:27:29;9.70;99.90
52127;DHT22;38120;53.176;6.614;2023-05-02T00:29:56;9.70;99.90
52127;DHT22;38120;53.176;6.614;2023-05-02T00:32:23;9.70;99.90
52127;DHT22;38120;53.176;6.614;2023-05-02T00:34:49;9.60;99.90
52127;DHT22;38120;53.176;6.614;2023-05-02T00:37:15;9.60;99.90
52127;DHT22;38120;53.176;6.614;2023-05-02T00:39:41;9.60;99.90
52127;DHT22;38120;53.176;6.614;2023-05-02T00:42:06;9.60;99.90
52127;DHT22;38120;53.176;6.614;2023-05-02T00:44:32;9.60;99.90
52127;DHT22;38120;53.176;6.614;2023-05-02T00:47:00;9.60;99.90
52127;DHT22;38120;53.176;6.614;2023-05-02T00:49:26;9.60;99.90
52127;DHT22;38120;53.176;6.614;2023-05-02T00:51:53;9.60;99.90
52127;DHT22;38120;53.176;6.614;2023-05-02T00:54:19;9.60;99.90
52127;DHT22;38120;53.176;6.614;2023-05-02T00:56:45;9.90;99.90
52127;DHT22;38120;53.176;6.614;2023-05-02T00:59:12;9.50;99.90
52127;DHT22;38120;53.176;6.614;2023-05-02T01:04:41;9.60;99.90
52127;DHT22;38120;53.176;6.614;2023-05-02T01:14:58;9.50;99.90
52127;DHT22;38120;53.176;6.614;2023-05-02T01:17:29;9.60;99.90
52127;DHT22;38120;53.176;6.614;2023-05-02T01:19:59;9.50;99.90
52127;DHT22;38120;53.176;6.614;2023-05-02T01:22:28;9.60;99.90
52127;DHT22;38120;53.176;6.614;2023-05-02T01:30:26;9.50;99.90
52127;DHT22;38120;53.176;6.614;2023-05-02T01:32:54;9.50;99.90
52127;DHT22;38120;53.176;6.614;2023-05-02T01:35:22;9.50;99.90
52127;DHT22;38120;53.176;6.614;2023-05-02T01:37:48;9.40;99.90
52127;DHT22;38120;53.176;6.614;2023-05-02T01:40:19;9.40;99.90
52127;DHT22;38120;53.176;6.614;2023-05-02T01:42:50;9.40;99.90
52127;DHT22;38120;53.176;6.614;2023-05-02T01:45:18;8.90;99.90
52127;DHT22;38120;53.176;6.614;2023-05-02T01:47:45;8.80;99.90
52127;DHT22;38120;53.176;6.614;2023-05-02T01:50:20;8.80;99.90
52127;DHT22;38120;53.176;6.614;2023-05-02T01:52:50;8.60;99.90
52127;DHT22;38120;53.176;6.614;2023-05-02T01:55:16;8.50;99.90
52127;DHT22;38120;53.176;6.614;2023-05-02T01:57:43;8.60;99.90
52127;DHT22;38120;53.176;6.614;2023-05-02T02:00:11;8.60;99.90
52127;DHT22;38120;53.176;6.614;2023-05-02T02:02:40;8.50;99.90
52127;DHT22;38120;53.176;6.614;2023-05-02T02:05:07;8.50;99.90
52127;DHT22;38120;53.176;6.614;2023-05-02T02:07:34;8.50;99.90
52127;DHT22;38120;53.176;6.614;2023-05-02T02:10:00;10.00;99.90
52127;DHT22;38120;53.176;6.614;2023-05-02T02:12:39;8.40;99.90
52127;DHT22;38120;53.176;6.614;2023-05-02T02:15:12;8.40;99.90
52127;DHT22;38120;53.176;6.614;2023-05-02T02:17:48;8.40;99.90
52127;DHT22;38120;53.176;6.614;2023-05-02T02:20:21;8.50;99.90
52127;DHT22;38120;53.176;6.614;2023-05-02T02:22:47;8.50;99.90
52127;DHT22;38120;53.176;6.614;2023-05-02T02:25:15;8.50;99.90
52127;DHT22;38120;53.176;6.614;2023-05-02T02:27:42;8.40;99.90
52127;DHT22;38120;53.176;6.614;2023-05-02T02:30:09;8.40;99.90
52127;DHT22;38120;53.176;6.614;2023-05-02T02:32:35;8.40;99.90
52127;DHT22;38120;53.176;6.614;2023-05-02T02:35:01;8.30;99.90
52127;DHT22;38120;53.176;6.614;2023-05-02T02:38:51;8.20;99.90
52127;DHT22;38120;53.176;6.614;2023-05-02T02:40:54;8.20;99.90
52127;DHT22;38120;53.176;6.614;2023-05-02T02:46:28;8.10;99.90
52127;DHT22;38120;53.176;6.614;2023-05-02T02:49:19;8.00;99.90
52127;DHT22;38120;53.176;6.614;2023-05-02T02:52:09;8.10;99.90
52127;DHT22;38120;53.176;6.614;2023-05-02T02:54:45;8.10;99.90
52127;DHT22;38120;53.176;6.614;2023-05-02T02:57:23;8.00;99.90
52127;DHT22;38120;53.176;6.614;2023-05-02T03:00:18;8.00;99.90
52127;DHT22;38120;53.176;6.614;2023-05-02T03:02:46;8.00;99.90
52127;DHT22;38120;53.176;6.614;2023-05-02T03:05:13;7.90;99.90
52127;DHT22;38120;53.176;6.614;2023-05-02T03:07:39;7.90;99.90
52127;DHT22;38120;53.176;6.614;2023-05-02T03:10:06;7.90;99.90
52127;DHT22;38120;53.176;6.614;2023-05-02T03:12:32;7.80;99.90
52127;DHT22;38120;53.176;6.614;2023-05-02T03:17:33;7.80;99.90
52127;DHT22;38120;53.176;6.614;2023-05-02T03:19:59;9.00;99.90
52127;DHT22;38120;53.176;6.614;2023-05-02T03:22:25;7.70;99.90
52127;DHT22;38120;53.176;6.614;2023-05-02T03:24:50;7.70;99.90
52127;DHT22;38120;53.176;6.614;2023-05-02T03:27:16;7.60;99.90
52127;DHT22;38120;53.176;6.614;2023-05-02T03:29:42;7.90;99.90
52127;DHT22;38120;53.176;6.614;2023-05-02T03:32:08;7.60;99.90
52127;DHT22;38120;53.176;6.614;2023-05-02T03:34:33;7.70;99.90
52127;DHT22;38120;53.176;6.614;2023-05-02T03:36:59;7.60;99.90
52127;DHT22;38120;53.176;6.614;2023-05-02T03:39:25;7.70;99.90
52127;DHT22;38120;53.176;6.614;2023-05-02T03:41:51;7.80;99.90
52127;DHT22;38120;53.176;6.614;2023-05-02T03:44:16;7.60;99.90
52127;DHT22;38120;53.176;6.614;2023-05-02T03:46:42;8.60;99.90
52127;DHT22;38120;53.176;6.614;2023-05-02T03:49:08;7.50;99.90
52127;DHT22;38120;53.176;6.614;2023-05-02T03:51:34;7.60;99.90
52127;DHT22;38120;53.176;6.614;2023-05-02T03:54:00;7.60;99.90
52127;DHT22;38120;53.176;6.614;2023-05-02T03:56:27;7.60;99.90
52127;DHT22;38120;53.176;6.614;2023-05-02T03:58:52;7.50;99.90
52127;DHT22;38120;53.176;6.614;2023-05-02T04:01:18;7.50;99.90
52127;DHT22;38120;53.176;6.614;2023-05-02T04:03:44;7.50;99.90
52127;DHT22;38120;53.176;6.614;2023-05-02T04:06:09;7.50;99.90
52127;DHT22;38120;53.176;6.614;2023-05-02T04:08:35;7.40;99.90
52127;DHT22;38120;53.176;6.614;2023-05-02T04:11:01;7.70;99.90
52127;DHT22;38120;53.176;6.614;2023-05-02T04:13:27;7.90;99.90
52127;DHT22;38120;53.176;6.614;2023-05-02T04:15:53;7.40;99.90
52127;DHT22;38120;53.176;6.614;2023-05-02T04:18:19;7.40;99.90
52127;DHT22;38120;53.176;6.614;2023-05-02T04:20:45;7.40;99.90
52127;DHT22;38120;53.176;6.614;2023-05-02T04:23:10;6.20;99.90
52127;DHT22;38120;53.176;6.614;2023-05-02T04:25:36;7.40;99.90
52127;DHT22;38120;53.176;6.614;2023-05-02T04:28:02;7.40;99.90
52127;DHT22;38120;53.176;6.614;2023-05-02T04:30:28;7.40;99.90
52127;DHT22;38120;53.176;6.614;2023-05-02T04:32:53;7.30;99.90
52127;DHT22;38120;53.176;6.614;2023-05-02T04:35:19;8.00;99.90
52127;DHT22;38120;53.176;6.614;2023-05-02T04:37:46;7.30;99.90
52127;DHT22;38120;53.176;6.614;2023-05-02T04:40:11;7.30;99.90
52127;DHT22;38120;53.176;6.614;2023-05-02T04:42:37;7.30;99.90
52127;DHT22;38120;53.176;6.614;2023-05-02T04:45:03;7.30;99.90
52127;DHT22;38120;53.176;6.614;2023-05-02T04:47:29;7.30;99.90
52127;DHT22;38120;53.176;6.614;2023-05-02T04:49:55;7.30;99.90
52127;DHT22;38120;53.176;6.614;2023-05-02T04:52:21;7.30;99.90
52127;DHT22;38120;53.176;6.614;2023-05-02T04:54:46;7.70;99.90
52127;DHT22;38120;53.176;6.614;2023-05-02T04:57:12;7.30;99.90
52127;DHT22;38120;53.176;6.614;2023-05-02T04:59:37;7.30;99.90
52127;DHT22;38120;53.176;6.614;2023-05-02T05:02:03;7.30;99.90
52127;DHT22;38120;53.176;6.614;2023-05-02T05:04:29;7.30;99.90
52127;DHT22;38120;53.176;6.614;2023-05-02T05:06:55;7.30;99.90
52127;DHT22;38120;53.176;6.614;2023-05-02T05:09:20;7.30;99.90
52127;DHT22;38120;53.176;6.614;2023-05-02T05:11:46;7.30;99.90
52127;DHT22;38120;53.176;6.614;2023-05-02T05:14:12;7.40;99.90
52127;DHT22;38120;53.176;6.614;2023-05-02T05:16:38;7.30;99.90
52127;DHT22;38120;53.176;6.614;2023-05-02T05:19:03;7.30;99.90
52127;DHT22;38120;53.176;6.614;2023-05-02T05:21:29;7.40;99.90
52127;DHT22;38120;53.176;6.614;2023-05-02T05:23:57;7.30;99.90
52127;DHT22;38120;53.176;6.614;2023-05-02T05:26:23;7.40;99.90
52127;DHT22;38120;53.176;6.614;2023-05-02T05:28:49;7.40;99.90
52127;DHT22;38120;53.176;6.614;2023-05-02T05:31:15;7.50;99.90
52127;DHT22;38120;53.176;6.614;2023-05-02T05:33:44;8.50;99.90
52127;DHT22;38120;53.176;6.614;2023-05-02T05:36:11;7.40;99.90
52127;DHT22;38120;53.176;6.614;2023-05-02T05:38:37;7.40;99.90
52127;DHT22;38120;53.176;6.614;2023-05-02T05:41:04;7.50;99.90
52127;DHT22;38120;53.176;6.614;2023-05-02T05:43:32;7.40;99.90
52127;DHT22;38120;53.176;6.614;2023-05-02T05:45:58;7.40;99.90
52127;DHT22;38120;53.176;6.614;2023-05-02T05:48:24;7.40;99.90
52127;DHT22;38120;53.176;6.614;2023-05-02T05:50:50;7.40;99.90
52127;DHT22;38120;53.176;6.614;2023-05-02T05:53:19;7.30;99.90
52127;DHT22;38120;53.176;6.614;2023-05-02T05:55:45;7.40;99.90
52127;DHT22;38120;53.176;6.614;2023-05-02T05:58:11;7.50;99.90
52127;DHT22;38120;53.176;6.614;2023-05-02T06:00:38;7.40;99.90
52127;DHT22;38120;53.176;6.614;2023-05-02T06:03:04;7.40;99.90
52127;DHT22;38120;53.176;6.614;2023-05-02T06:05:31;7.50;99.90
52127;DHT22;38120;53.176;6.614;2023-05-02T06:07:57;7.50;99.90
52127;DHT22;38120;53.176;6.614;2023-05-02T06:10:23;7.50;99.90
52127;DHT22;38120;53.176;6.614;2023-05-02T06:12:49;7.50;99.90
52127;DHT22;38120;53.176;6.614;2023-05-02T06:15:15;7.60;90.60
52127;DHT22;38120;53.176;6.614;2023-05-02T06:17:41;7.60;58.80
52127;DHT22;38120;53.176;6.614;2023-05-02T06:20:07;7.50;1.00
52127;DHT22;38120;53.176;6.614;2023-05-02T06:22:34;7.60;1.00
52127;DHT22;38120;53.176;6.614;2023-05-02T06:25:00;7.50;99.90
52127;DHT22;38120;53.176;6.614;2023-05-02T06:27:26;7.70;99.90
52127;DHT22;38120;53.176;6.614;2023-05-02T06:29:52;7.40;63.20
52127;DHT22;38120;53.176;6.614;2023-05-02T06:32:18;7.50;24.20
52127;DHT22;38120;53.176;6.614;2023-05-02T06:34:44;7.40;1.00
52127;DHT22;38120;53.176;6.614;2023-05-02T06:37:09;7.60;22.90
52127;DHT22;38120;53.176;6.614;2023-05-02T06:39:36;7.60;1.00
52127;DHT22;38120;53.176;6.614;2023-05-02T06:42:01;8.40;1.00
52127;DHT22;38120;53.176;6.614;2023-05-02T06:44:27;7.60;99.90
52127;DHT22;38120;53.176;6.614;2023-05-02T06:46:53;7.80;99.90
52127;DHT22;38120;53.176;6.614;2023-05-02T06:49:21;7.60;99.90
52127;DHT22;38120;53.176;6.614;2023-05-02T06:51:46;8.20;99.90
52127;DHT22;38120;53.176;6.614;2023-05-02T06:54:12;7.60;99.90
52127;DHT22;38120;53.176;6.614;2023-05-02T06:56:39;7.70;99.90
52127;DHT22;38120;53.176;6.614;2023-05-02T06:59:05;7.70;99.90
52127;DHT22;38120;53.176;6.614;2023-05-02T07:01:31;7.80;99.90
52127;DHT22;38120;53.176;6.614;2023-05-02T07:03:56;7.80;99.90
52127;DHT22;38120;53.176;6.614;2023-05-02T07:06:23;7.80;99.90
52127;DHT22;38120;53.176;6.614;2023-05-02T07:08:48;8.50;99.90
52127;DHT22;38120;53.176;6.614;2023-05-02T07:11:14;7.90;67.50
52127;DHT22;38120;53.176;6.614;2023-05-02T07:13:40;7.90;1.00
52127;DHT22;38120;53.176;6.614;2023-05-02T07:16:06;7.90;1.00
52127;DHT22;38120;53.176;6.614;2023-05-02T07:18:32;8.00;1.00
52127;DHT22;38120;53.176;6.614;2023-05-02T07:20:58;8.20;1.00
52127;DHT22;38120;53.176;6.614;2023-05-02T07:23:25;8.10;1.00
52127;DHT22;38120;53.176;6.614;2023-05-02T07:25:51;8.10;1.00
52127;DHT22;38120;53.176;6.614;2023-05-02T07:28:17;8.00;99.90
52127;DHT22;38120;53.176;6.614;2023-05-02T07:30:42;8.10;99.90
52127;DHT22;38120;53.176;6.614;2023-05-02T07:33:08;8.10;99.90
52127;DHT22;38120;53.176;6.614;2023-05-02T07:35:34;8.10;99.90
52127;DHT22;38120;53.176;6.614;2023-05-02T07:37:59;8.00;99.90
52127;DHT22;38120;53.176;6.614;2023-05-02T07:40:25;8.10;99.90
52127;DHT22;38120;53.176;6.614;2023-05-02T07:42:51;8.00;99.90
52127;DHT22;38120;53.176;6.614;2023-05-02T07:45:16;8.20;99.90
52127;DHT22;38120;53.176;6.614;2023-05-02T07:47:42;8.40;99.90
52127;DHT22;38120;53.176;6.614;2023-05-02T07:50:09;8.40;99.90
52127;DHT22;38120;53.176;6.614;2023-05-02T07:52:35;8.50;99.90
52127;DHT22;38120;53.176;6.614;2023-05-02T07:55:01;8.40;99.90
52127;DHT22;38120;53.176;6.614;2023-05-02T07:57:26;9.10;99.90
52127;DHT22;38120;53.176;6.614;2023-05-02T07:59:52;8.60;99.90
52127;DHT22;38120;53.176;6.614;2023-05-02T08:02:18;8.60;99.90
52127;DHT22;38120;53.176;6.614;2023-05-02T08:04:46;8.60;99.90
52127;DHT22;38120;53.176;6.614;2023-05-02T08:07:12;8.80;99.90
52127;DHT22;38120;53.176;6.614;2023-05-02T08:09:38;8.90;99.90
52127;DHT22;38120;53.176;6.614;2023-05-02T08:12:03;8.90;99.90
52127;DHT22;38120;53.176;6.614;2023-05-02T08:14:30;9.10;99.90
52127;DHT22;38120;53.176;6.614;2023-05-02T08:16:56;9.00;99.90
52127;DHT22;38120;53.176;6.614;2023-05-02T08:19:22;9.20;99.90
52127;DHT22;38120;53.176;6.614;2023-05-02T08:21:48;9.50;99.90
52127;DHT22;38120;53.176;6.614;2023-05-02T08:24:13;9.50;99.90
52127;DHT22;38120;53.176;6.614;2023-05-02T08:26:39;9.40;99.90
52127;DHT22;38120;53.176;6.614;2023-05-02T08:29:05;9.30;99.90
52127;DHT22;38120;53.176;6.614;2023-05-02T08:31:30;9.30;99.90
52127;DHT22;38120;53.176;6.614;2023-05-02T08:33:56;9.10;99.90
52127;DHT22;38120;53.176;6.614;2023-05-02T08:36:23;9.20;99.90
52127;DHT22;38120;53.176;6.614;2023-05-02T08:38:48;9.60;99.90
52127;DHT22;38120;53.176;6.614;2023-05-02T08:41:16;9.70;99.90
52127;DHT22;38120;53.176;6.614;2023-05-02T08:43:43;9.50;99.90
52127;DHT22;38120;53.176;6.614;2023-05-02T08:46:09;9.50;96.30
52127;DHT22;38120;53.176;6.614;2023-05-02T08:48:36;9.60;82.80
52127;DHT22;38120;53.176;6.614;2023-05-02T08:51:03;9.60;67.10
52127;DHT22;38120;53.176;6.614;2023-05-02T08:53:34;9.60;75.90
52127;DHT22;38120;53.176;6.614;2023-05-02T08:56:00;9.50;50.60
52127;DHT22;38120;53.176;6.614;2023-05-02T08:58:26;9.40;39.00
52127;DHT22;38120;53.176;6.614;2023-05-02T09:00:52;9.20;38.60
52127;DHT22;38120;53.176;6.614;2023-05-02T09:03:35;9.10;48.70
52127;DHT22;38120;53.176;6.614;2023-05-02T09:06:27;9.80;99.90
52127;DHT22;38120;53.176;6.614;2023-05-02T09:08:53;10.20;84.10
52127;DHT22;38120;53.176;6.614;2023-05-02T09:11:20;10.20;63.80
52127;DHT22;38120;53.176;6.614;2023-05-02T09:13:49;10.10;48.90
52127;DHT22;38120;53.176;6.614;2023-05-02T09:16:20;10.20;47.10
52127;DHT22;38120;53.176;6.614;2023-05-02T09:18:54;10.00;24.60
52127;DHT22;38120;53.176;6.614;2023-05-02T09:21:22;9.80;12.40
52127;DHT22;38120;53.176;6.614;2023-05-02T09:23:56;9.70;21.30
52127;DHT22;38120;53.176;6.614;2023-05-02T09:26:27;9.70;35.40
52127;DHT22;38120;53.176;6.614;2023-05-02T09:28:56;10.10;47.10
52127;DHT22;38120;53.176;6.614;2023-05-02T09:31:30;10.10;73.40
52127;DHT22;38120;53.176;6.614;2023-05-02T09:36:43;9.80;99.90
52127;DHT22;38120;53.176;6.614;2023-05-02T09:39:11;9.40;99.90
52127;DHT22;38120;53.176;6.614;2023-05-02T09:41:41;9.40;99.90
52127;DHT22;38120;53.176;6.614;2023-05-02T09:44:14;9.40;99.90
52127;DHT22;38120;53.176;6.614;2023-05-02T09:46:41;9.30;99.90
52127;DHT22;38120;53.176;6.614;2023-05-02T09:49:07;9.30;99.90
52127;DHT22;38120;53.176;6.614;2023-05-02T09:51:34;9.40;99.90
52127;DHT22;38120;53.176;6.614;2023-05-02T09:54:00;9.60;99.90
52127;DHT22;38120;53.176;6.614;2023-05-02T09:56:26;9.80;99.90
52127;DHT22;38120;53.176;6.614;2023-05-02T09:59:11;10.00;99.90
52127;DHT22;38120;53.176;6.614;2023-05-02T10:01:40;10.30;99.90
52127;DHT22;38120;53.176;6.614;2023-05-02T10:04:11;10.50;99.90
52127;DHT22;38120;53.176;6.614;2023-05-02T10:06:42;10.20;99.90
52127;DHT22;38120;53.176;6.614;2023-05-02T10:09:09;10.10;99.90
52127;DHT22;38120;53.176;6.614;2023-05-02T10:11:38;9.90;99.90
52127;DHT22;38120;53.176;6.614;2023-05-02T10:14:08;9.80;99.90
52127;DHT22;38120;53.176;6.614;2023-05-02T10:16:41;9.80;99.90
52127;DHT22;38120;53.176;6.614;2023-05-02T10:19:11;9.80;99.90
52127;DHT22;38120;53.176;6.614;2023-05-02T10:21:42;9.90;99.90
52127;DHT22;38120;53.176;6.614;2023-05-02T10:24:08;9.90;99.90
52127;DHT22;38120;53.176;6.614;2023-05-02T10:26:35;10.10;99.90
52127;DHT22;38120;53.176;6.614;2023-05-02T10:29:01;10.50;99.90
52127;DHT22;38120;53.176;6.614;2023-05-02T10:31:29;10.90;99.90
52127;DHT22;38120;53.176;6.614;2023-05-02T10:33:58;11.00;99.90
52127;DHT22;38120;53.176;6.614;2023-05-02T10:36:26;10.60;99.90
52127;DHT22;38120;53.176;6.614;2023-05-02T10:38:53;10.50;99.90
52127;DHT22;38120;53.176;6.614;2023-05-02T10:41:24;10.40;93.10
52127;DHT22;38120;53.176;6.614;2023-05-02T10:43:52;10.30;59.30
52127;DHT22;38120;53.176;6.614;2023-05-02T10:49:09;10.10;63.20
52127;DHT22;38120;53.176;6.614;2023-05-02T10:51:37;10.30;97.00
52127;DHT22;38120;53.176;6.614;2023-05-02T10:54:22;10.30;94.20
52127;DHT22;38120;53.176;6.614;2023-05-02T10:57:06;10.30;99.90
52127;DHT22;38120;53.176;6.614;2023-05-02T10:59:39;10.30;99.90
52127;DHT22;38120;53.176;6.614;2023-05-02T11:05:06;9.80;99.90
52127;DHT22;38120;53.176;6.614;2023-05-02T11:07:35;9.90;99.90
52127;DHT22;38120;53.176;6.614;2023-05-02T11:12:44;9.70;99.90
52127;DHT22;38120;53.176;6.614;2023-05-02T11:15:12;9.90;99.90
52127;DHT22;38120;53.176;6.614;2023-05-02T11:20:29;10.00;1.00
52127;DHT22;38120;53.176;6.614;2023-05-02T11:25:55;10.30;99.90
52127;DHT22;38120;53.176;6.614;2023-05-02T11:30:59;11.40;99.90
52127;DHT22;38120;53.176;6.614;2023-05-02T11:33:27;11.90;99.90
52127;DHT22;38120;53.176;6.614;2023-05-02T11:35:54;11.70;99.90
52127;DHT22;38120;53.176;6.614;2023-05-02T11:38:21;11.20;99.90
52127;DHT22;38120;53.176;6.614;2023-05-02T11:40:58;10.90;99.90
52127;DHT22;38120;53.176;6.614;2023-05-02T11:43:26;10.60;99.90
52127;DHT22;38120;53.176;6.614;2023-05-02T11:45:53;10.90;99.90
52127;DHT22;38120;53.176;6.614;2023-05-02T11:48:20;10.70;99.90
52127;DHT22;38120;53.176;6.614;2023-05-02T11:50:51;10.60;99.90
52127;DHT22;38120;53.176;6.614;2023-05-02T11:53:22;10.70;99.90
52127;DHT22;38120;53.176;6.614;2023-05-02T11:56:00;10.70;99.90
52127;DHT22;38120;53.176;6.614;2023-05-02T11:58:28;10.70;99.90
52127;DHT22;38120;53.176;6.614;2023-05-02T12:00:55;11.10;99.90
52127;DHT22;38120;53.176;6.614;2023-05-02T12:03:30;10.90;99.90
52127;DHT22;38120;53.176;6.614;2023-05-02T12:05:57;10.80;99.90
52127;DHT22;38120;53.176;6.614;2023-05-02T12:08:32;10.80;93.20
52127;DHT22;38120;53.176;6.614;2023-05-02T12:10:58;10.60;32.90
52127;DHT22;38120;53.176;6.614;2023-05-02T12:13:25;10.70;27.60
52127;DHT22;38120;53.176;6.614;2023-05-02T12:15:52;10.70;8.00
52127;DHT22;38120;53.176;6.614;2023-05-02T12:18:21;10.80;1.60
52127;DHT22;38120;53.176;6.614;2023-05-02T12:20:54;11.20;1.00
52127;DHT22;38120;53.176;6.614;2023-05-02T12:23:23;11.70;1.00
52127;DHT22;38120;53.176;6.614;2023-05-02T12:25:51;11.30;1.00
52127;DHT22;38120;53.176;6.614;2023-05-02T12:28:17;11.00;1.00
52127;DHT22;38120;53.176;6.614;2023-05-02T12:30:47;10.90;1.00
52127;DHT22;38120;53.176;6.614;2023-05-02T12:33:14;11.00;1.00
52127;DHT22;38120;53.176;6.614;2023-05-02T12:35:41;11.00;1.00
52127;DHT22;38120;53.176;6.614;2023-05-02T12:38:18;11.30;1.00
52127;DHT22;38120;53.176;6.614;2023-05-02T12:40:50;11.20;1.00
52127;DHT22;38120;53.176;6.614;2023-05-02T12:43:17;11.40;1.00
52127;DHT22;38120;53.176;6.614;2023-05-02T12:45:43;11.10;1.00
52127;DHT22;38120;53.176;6.614;2023-05-02T12:48:20;11.60;1.00
52127;DHT22;38120;53.176;6.614;2023-05-02T12:50:47;11.80;1.00
52127;DHT22;38120;53.176;6.614;2023-05-02T12:53:13;11.60;1.00
52127;DHT22;38120;53.176;6.614;2023-05-02T12:55:39;11.60;1.00
52127;DHT22;38120;53.176;6.614;2023-05-02T12:58:08;11.20;1.00
52127;DHT22;38120;53.176;6.614;2023-05-02T13:00:36;11.20;1.00
52127;DHT22;38120;53.176;6.614;2023-05-02T13:03:03;11.10;1.00
52127;DHT22;38120;53.176;6.614;2023-05-02T13:05:29;11.10;1.00
52127;DHT22;38120;53.176;6.614;2023-05-02T13:07:55;11.10;1.00
52127;DHT22;38120;53.176;6.614;2023-05-02T13:10:22;11.10;1.00
52127;DHT22;38120;53.176;6.614;2023-05-02T13:12:51;11.00;91.20
52127;DHT22;38120;53.176;6.614;2023-05-02T13:15:17;10.80;99.90
52127;DHT22;38120;53.176;6.614;2023-05-02T13:17:43;10.70;99.90
52127;DHT22;38120;53.176;6.614;2023-05-02T13:20:09;10.40;99.90
52127;DHT22;38120;53.176;6.614;2023-05-02T13:22:35;10.50;99.90
52127;DHT22;38120;53.176;6.614;2023-05-02T13:25:02;10.70;99.90
52127;DHT22;38120;53.176;6.614;2023-05-02T13:27:28;10.60;99.90
52127;DHT22;38120;53.176;6.614;2023-05-02T13:29:54;10.50;99.90
52127;DHT22;38120;53.176;6.614;2023-05-02T13:32:20;10.50;99.90
52127;DHT22;38120;53.176;6.614;2023-05-02T13:34:46;10.50;99.90
52127;DHT22;38120;53.176;6.614;2023-05-02T13:37:12;10.50;99.90
52127;DHT22;38120;53.176;6.614;2023-05-02T13:39:38;10.40;99.90
52127;DHT22;38120;53.176;6.614;2023-05-02T13:42:03;10.50;99.90
52127;DHT22;38120;53.176;6.614;2023-05-02T13:44:31;10.60;99.90
52127;DHT22;38120;53.176;6.614;2023-05-02T13:46:57;10.70;99.90
52127;DHT22;38120;53.176;6.614;2023-05-02T13:49:23;10.90;99.90
52127;DHT22;38120;53.176;6.614;2023-05-02T13:51:48;11.10;99.90
52127;DHT22;38120;53.176;6.614;2023-05-02T13:54:15;10.90;99.90
52127;DHT22;38120;53.176;6.614;2023-05-02T13:56:41;10.70;99.90
52127;DHT22;38120;53.176;6.614;2023-05-02T13:59:07;10.70;99.90
52127;DHT22;38120;53.176;6.614;2023-05-02T14:01:34;10.50;99.90
52127;DHT22;38120;53.176;6.614;2023-05-02T14:04:00;10.70;99.90
52127;DHT22;38120;53.176;6.614;2023-05-02T14:06:31;10.70;99.90
52127;DHT22;38120;53.176;6.614;2023-05-02T14:08:57;11.10;99.90
52127;DHT22;38120;53.176;6.614;2023-05-02T14:11:22;11.10;99.90
52127;DHT22;38120;53.176;6.614;2023-05-02T14:13:48;11.10;90.00
52127;DHT22;38120;53.176;6.614;2023-05-02T14:16:14;11.90;99.90
52127;DHT22;38120;53.176;6.614;2023-05-02T14:18:39;11.80;99.40
52127;DHT22;38120;53.176;6.614;2023-05-02T14:21:05;11.30;19.90
52127;DHT22;38120;53.176;6.614;2023-05-02T14:23:31;11.30;24.00
52127;DHT22;38120;53.176;6.614;2023-05-02T14:25:57;11.10;12.50
52127;DHT22;38120;53.176;6.614;2023-05-02T14:28:22;10.90;15.60
52127;DHT22;38120;53.176;6.614;2023-05-02T14:30:49;10.80;12.60
52127;DHT22;38120;53.176;6.614;2023-05-02T14:33:14;10.80;21.30
52127;DHT22;38120;53.176;6.614;2023-05-02T14:35:40;10.70;1.00
52127;DHT22;38120;53.176;6.614;2023-05-02T14:38:06;10.70;13.70
52127;DHT22;38120;53.176;6.614;2023-05-02T14:40:31;10.60;61.60
52127;DHT22;38120;53.176;6.614;2023-05-02T14:42:57;10.50;97.40
52127;DHT22;38120;53.176;6.614;2023-05-02T14:45:23;10.20;99.90
52127;DHT22;38120;53.176;6.614;2023-05-02T14:47:49;10.20;99.90
52127;DHT22;38120;53.176;6.614;2023-05-02T14:50:15;10.20;99.90
52127;DHT22;38120;53.176;6.614;2023-05-02T14:52:49;10.30;99.90
52127;DHT22;38120;53.176;6.614;2023-05-02T14:55:15;10.20;99.90
52127;DHT22;38120;53.176;6.614;2023-05-02T14:57:40;10.30;99.90
52127;DHT22;38120;53.176;6.614;2023-05-02T15:00:07;10.30;99.90
52127;DHT22;38120;53.176;6.614;2023-05-02T15:02:34;10.20;99.90
52127;DHT22;38120;53.176;6.614;2023-05-02T15:05:01;10.20;99.90
52127;DHT22;38120;53.176;6.614;2023-05-02T15:07:27;10.20;99.90
52127;DHT22;38120;53.176;6.614;2023-05-02T15:09:53;9.90;99.90
52127;DHT22;38120;53.176;6.614;2023-05-02T15:12:19;9.90;99.90
52127;DHT22;38120;53.176;6.614;2023-05-02T15:14:45;9.80;99.90
52127;DHT22;38120;53.176;6.614;2023-05-02T15:17:10;9.80;99.90
52127;DHT22;38120;53.176;6.614;2023-05-02T15:19:36;9.90;99.90
52127;DHT22;38120;53.176;6.614;2023-05-02T15:22:02;9.90;99.90
52127;DHT22;38120;53.176;6.614;2023-05-02T15:24:27;9.80;99.90
52127;DHT22;38120;53.176;6.614;2023-05-02T15:26:53;9.70;99.90
52127;DHT22;38120;53.176;6.614;2023-05-02T15:29:19;9.90;99.90
52127;DHT22;38120;53.176;6.614;2023-05-02T15:31:45;9.90;99.90
52127;DHT22;38120;53.176;6.614;2023-05-02T15:34:11;10.00;99.90
52127;DHT22;38120;53.176;6.614;2023-05-02T15:36:37;9.90;99.90
52127;DHT22;38120;53.176;6.614;2023-05-02T15:39:03;10.10;99.90
52127;DHT22;38120;53.176;6.614;2023-05-02T15:41:29;10.20;99.90
52127;DHT22;38120;53.176;6.614;2023-05-02T15:43:56;10.10;99.90
52127;DHT22;38120;53.176;6.614;2023-05-02T15:46:22;10.30;99.90
52127;DHT22;38120;53.176;6.614;2023-05-02T15:48:48;10.60;99.90
52127;DHT22;38120;53.176;6.614;2023-05-02T15:51:15;10.50;99.90
52127;DHT22;38120;53.176;6.614;2023-05-02T15:53:41;10.80;99.90
52127;DHT22;38120;53.176;6.614;2023-05-02T15:56:11;10.80;99.90
52127;DHT22;38120;53.176;6.614;2023-05-02T15:58:37;10.60;97.60
52127;DHT22;38120;53.176;6.614;2023-05-02T16:01:03;10.50;75.10
52127;DHT22;38120;53.176;6.614;2023-05-02T16:03:29;10.70;93.10
52127;DHT22;38120;53.176;6.614;2023-05-02T16:05:59;10.60;59.50
52127;DHT22;38120;53.176;6.614;2023-05-02T16:08:25;10.50;44.90
52127;DHT22;38120;53.176;6.614;2023-05-02T16:10:51;10.30;42.10
52127;DHT22;38120;53.176;6.614;2023-05-02T16:13:17;10.20;44.60
52127;DHT22;38120;53.176;6.614;2023-05-02T16:15:44;10.10;62.20
52127;DHT22;38120;53.176;6.614;2023-05-02T16:18:12;10.20;99.90
52127;DHT22;38120;53.176;6.614;2023-05-02T16:20:38;10.20;99.90
52127;DHT22;38120;53.176;6.614;2023-05-02T16:23:04;10.20;99.90
52127;DHT22;38120;53.176;6.614;2023-05-02T16:25:32;10.20;99.90